Time;durP1;ratioP1;P1;durP2;ratioP2;P2;SDS_P1;SDS_P2;PMS_P1;PMS_P2;Temp;Humidity;BMP_temperature;BMP_pressure;BME280_temperature;BME280_humidity;BME280_pressure;Samples;Min_cycle;Max_cycle;Signal;HPM_P1;HPM_P2
2022/06/18 00:00:52;;;;;;;16.73;7.30;;;;;;;22.81;53.12;101424.97;5108556;28;20093;-56
2022/06/18 00:03:19;;;;;;;22.30;9.38;;;;;;;22.75;53.34;101429.38;5109235;28;20052;-55
2022/06/18 00:05:48;;;;;;;71.93;41.97;;;;;;;22.59;53.57;101425.34;5109305;28;20051;-55
2022/06/18 00:08:21;;;;;;;30.08;14.82;;;;;;;22.57;53.81;101424.72;5108497;28;20050;-56
2022/06/18 00:10:53;;;;;;;31.60;15.93;;;;;;;22.49;54.31;101416.06;5104661;28;20045;-64
2022/06/18 00:13:40;;;;;;;109.38;38.47;;;;;;;22.41;54.61;101412.56;5087805;28;20056;-62
2022/06/18 00:16:14;;;;;;;33.55;19.90;;;;;;;22.17;55.17;101410.56;5089218;28;20078;-64
2022/06/18 00:18:42;;;;;;;41.83;20.42;;;;;;;22.25;55.09;101410.31;5089477;28;20044;-63
2022/06/18 00:21:15;;;;;;;39.95;18.60;;;;;;;22.20;55.37;101405.56;5087773;28;20127;-61
2022/06/18 00:23:43;;;;;;;186.98;98.80;;;;;;;22.23;54.94;101409.72;5078642;28;20509;-58
2022/06/18 00:26:11;;;;;;;33.95;13.52;;;;;;;22.09;55.63;101406.22;5075955;28;20099;-56
2022/06/18 00:28:39;;;;;;;95.88;51.05;;;;;;;22.11;55.42;101400.63;5075343;28;20485;-56
2022/06/18 00:31:06;;;;;;;38.08;19.35;;;;;;;22.13;55.23;101407.47;5056339;28;20086;-56
2022/06/18 00:33:35;;;;;;;20.92;8.13;;;;;;;22.16;55.23;101409.75;5075219;28;20068;-54
2022/06/18 00:36:05;;;;;;;104.78;53.72;;;;;;;22.29;55.31;101402.66;5074991;28;20083;-52
2022/06/18 00:38:37;;;;;;;252.82;146.75;;;;;;;22.40;55.05;101401.97;5058151;28;20097;-52
2022/06/18 00:41:06;;;;;;;62.08;31.50;;;;;;;22.54;54.11;101405.38;5073924;28;20041;-56
2022/06/18 00:43:41;;;;;;;156.65;25.45;;;;;;;22.48;54.55;101398.16;5075548;28;20048;-55
2022/06/18 00:46:20;;;;;;;54.22;23.30;;;;;;;22.39;54.77;101398.44;5074864;28;20041;-55
2022/06/18 00:49:13;;;;;;;25.48;10.38;;;;;;;22.35;54.66;101404.47;5075214;28;20132;-56
2022/06/18 00:51:47;;;;;;;20.02;8.25;;;;;;;22.23;54.74;101396.19;5075121;28;20036;-55
2022/06/18 00:54:23;;;;;;;321.05;214.25;;;;;;;22.24;55.26;101397.84;5074532;28;20048;-54
2022/06/18 00:57:04;;;;;;;71.55;33.10;;;;;;;22.23;54.99;101402.44;5071666;28;20040;-58
2022/06/18 00:59:39;;;;;;;222.88;110.22;;;;;;;22.31;54.63;101397.84;5075151;28;20324;-53
2022/06/18 01:02:13;;;;;;;57.20;21.85;;;;;;;22.29;54.83;101400.75;5074847;28;20045;-56
2022/06/18 01:04:40;;;;;;;25.08;8.57;;;;;;;22.24;54.51;101395.16;5074092;28;20444;-58
2022/06/18 01:07:36;;;;;;;108.93;69.28;;;;;;;22.20;54.74;101404.72;5075023;28;20067;-61
2022/06/18 01:10:10;;;;;;;485.25;207.75;;;;;;;22.27;54.89;101402.03;5074630;28;20048;-56
2022/06/18 01:12:36;;;;;;;251.18;102.50;;;;;;;22.29;55.05;101398.06;5074468;28;20494;-54
2022/06/18 01:15:08;;;;;;;61.55;26.67;;;;;;;22.22;55.51;101395.34;5073563;28;20382;-58
2022/06/18 01:17:40;;;;;;;44.60;23.85;;;;;;;22.29;54.98;101398.06;5074096;28;20444;-59
2022/06/18 01:20:10;;;;;;;14.73;6.68;;;;;;;22.22;55.01;101399.94;5074896;28;20059;-58
2022/06/18 01:25:15;;;;;;;46.90;6.72;;;;;;;22.17;55.25;101392.47;5097988;27;20364;-54
2022/06/18 01:27:46;;;;;;;17.80;6.47;;;;;;;22.10;54.74;101394.38;5090841;28;20157;-56
2022/06/18 01:30:25;;;;;;;27.60;12.63;;;;;;;22.01;54.96;101382.16;5090535;28;20485;-55
2022/06/18 01:32:56;;;;;;;21.00;6.22;;;;;;;21.99;54.79;101381.53;5075948;28;20052;-56
2022/06/18 01:35:26;;;;;;;63.83;27.77;;;;;;;21.91;55.29;101379.91;5069210;28;20060;-58
2022/06/18 01:38:13;;;;;;;16.92;7.13;;;;;;;21.84;55.10;101374.53;5096452;28;20065;-53
2022/06/18 01:41:53;;;;;;;24.13;11.20;;;;;;;21.91;55.52;101369.13;5109037;27;20391;-56
2022/06/18 01:44:39;;;;;;;183.23;87.93;;;;;;;21.98;55.23;101374.50;5092945;28;20040;-56
2022/06/18 01:47:14;;;;;;;75.20;16.83;;;;;;;22.02;54.68;101368.44;5091037;28;20044;-56
2022/06/18 01:49:50;;;;;;;18.08;6.45;;;;;;;22.12;53.90;101372.53;5090832;28;20551;-56
2022/06/18 01:52:26;;;;;;;12.85;5.85;;;;;;;22.15;53.66;101372.94;5089038;28;20505;-56
2022/06/18 01:55:05;;;;;;;16.33;5.80;;;;;;;22.07;53.84;101366.97;5108281;28;20446;-57
2022/06/18 01:57:38;;;;;;;14.32;5.50;;;;;;;22.06;53.79;101366.13;5108956;28;20039;-57
2022/06/18 02:00:17;;;;;;;12.13;5.28;;;;;;;21.98;53.71;101369.91;5109624;28;20481;-56
2022/06/18 02:02:52;;;;;;;169.90;63.35;;;;;;;21.86;54.51;101363.53;5094807;28;20083;-56
2022/06/18 02:05:20;;;;;;;49.90;18.83;;;;;;;21.67;55.08;101362.56;5088429;28;20048;-56
2022/06/18 02:07:49;;;;;;;26.70;9.05;;;;;;;21.64;55.06;101352.19;5089182;28;20105;-56
2022/06/18 02:10:23;;;;;;;78.88;38.58;;;;;;;21.62;54.84;101352.38;5090329;28;20128;-56
2022/06/18 02:12:52;;;;;;;34.47;13.07;;;;;;;21.54;54.65;101355.34;5089764;28;20044;-57
2022/06/18 02:15:25;;;;;;;94.13;38.35;;;;;;;21.47;55.06;101360.75;5090314;28;20393;-57
2022/06/18 02:17:58;;;;;;;723.47;304.67;;;;;;;21.35;55.52;101354.28;5103802;28;20064;-56
2022/06/18 02:20:27;;;;;;;88.75;44.70;;;;;;;21.34;55.89;101352.66;5110227;28;20081;-56
2022/06/18 02:22:57;;;;;;;13.85;5.40;;;;;;;21.25;56.04;101343.94;5107491;28;20048;-58
2022/06/18 02:25:27;;;;;;;34.60;5.75;;;;;;;21.24;55.80;101346.84;5110392;28;20516;-57
2022/06/18 02:27:59;;;;;;;13.65;5.15;;;;;;;21.20;55.61;101342.91;5110530;28;20051;-56
2022/06/18 02:30:29;;;;;;;13.43;5.18;;;;;;;21.11;55.72;101346.88;5110066;28;20852;-55
2022/06/18 02:33:24;;;;;;;12.57;4.90;;;;;;;21.11;56.26;101355.78;5108393;28;20386;-55
2022/06/18 02:35:51;;;;;;;14.00;5.20;;;;;;;21.04;56.19;101349.56;5107508;28;20570;-55
2022/06/18 02:38:22;;;;;;;11.45;5.10;;;;;;;21.00;56.56;101349.16;5110396;28;20047;-55
2022/06/18 02:40:49;;;;;;;13.98;6.28;;;;;;;20.92;56.82;101349.38;5108698;28;20123;-55
2022/06/18 02:43:18;;;;;;;17.38;5.03;;;;;;;20.90;56.13;101351.44;5108433;28;20100;-55
2022/06/18 02:45:52;;;;;;;14.25;5.70;;;;;;;20.73;56.97;101355.59;5110141;28;20047;-54
2022/06/18 02:48:25;;;;;;;15.63;5.30;;;;;;;20.74;56.62;101358.09;5110113;28;20127;-55
2022/06/18 02:50:53;;;;;;;18.30;5.53;;;;;;;20.69;57.24;101358.69;5110236;28;20040;-55
2022/06/18 02:53:20;;;;;;;14.27;5.60;;;;;;;20.63;57.59;101348.75;5077894;28;20047;-55
2022/06/18 02:55:52;;;;;;;9.65;4.93;;;;;;;20.63;57.82;101358.69;5076275;28;20047;-55
2022/06/18 02:58:21;;;;;;;;;;;;;;;20.66;57.36;101352.88;5092036;28;20068;-54
2022/06/18 03:00:53;;;;;;;14.98;5.50;;;;;;;20.66;57.71;101352.88;5096216;28;19920;-55
2022/06/18 03:03:23;;;;;;;17.58;6.68;;;;;;;20.69;57.59;101350.59;5078002;28;20132;-55
2022/06/18 03:05:52;;;;;;;13.90;5.70;;;;;;;20.62;57.39;101357.84;5075580;28;20047;-54
2022/06/18 03:08:22;;;;;;;18.50;6.63;;;;;;;20.62;57.63;101360.53;5075928;28;20044;-54
2022/06/18 03:13:39;;;;;;;13.13;5.93;;;;;;;20.59;57.90;101363.66;5094217;28;20132;-55
2022/06/18 03:16:09;;;;;;;16.98;7.15;;;;;;;20.55;58.42;101358.84;5095693;28;20066;-54
2022/06/18 03:18:38;;;;;;;13.60;6.00;;;;;;;20.49;58.51;101364.03;5094952;28;20059;-55
2022/06/18 03:21:42;;;;;;;15.60;5.93;;;;;;;20.51;58.74;101364.66;5095554;28;20084;-55
2022/06/18 03:24:09;;;;;;;13.77;5.72;;;;;;;20.39;59.09;101368.16;5095847;28;20070;-55
2022/06/18 03:26:37;;;;;;;13.40;5.55;;;;;;;20.43;59.42;101374.78;5094999;28;20071;-55
2022/06/18 03:29:09;;;;;;;13.52;5.43;;;;;;;20.41;58.47;101366.94;5095735;28;20127;-55
2022/06/18 03:31:37;;;;;;;12.95;5.65;;;;;;;20.40;59.18;101375.22;5093391;28;20040;-55
2022/06/18 03:34:04;;;;;;;14.77;5.50;;;;;;;20.34;58.95;101371.47;5095577;28;20055;-55
2022/06/18 03:36:32;;;;;;;14.60;5.30;;;;;;;20.36;59.13;101365.88;5095346;28;20036;-55
2022/06/18 03:39:01;;;;;;;12.15;5.20;;;;;;;20.35;59.27;101366.91;5095226;28;20054;-55
2022/06/18 03:41:29;;;;;;;12.48;5.25;;;;;;;20.30;60.46;101371.03;5093776;28;20128;-55
2022/06/18 03:43:56;;;;;;;12.88;5.40;;;;;;;20.32;60.18;101368.16;5054854;28;20045;-55
2022/06/18 03:46:26;;;;;;;12.60;5.80;;;;;;;20.26;60.15;101372.47;5055322;28;20041;-55
2022/06/18 03:48:57;;;;;;;12.70;5.40;;;;;;;20.29;60.22;101365.84;5066949;28;20059;-55
2022/06/18 03:51:29;;;;;;;13.90;5.93;;;;;;;20.25;60.35;101365.44;5077630;28;20102;-55
2022/06/18 03:53:57;;;;;;;12.52;5.50;;;;;;;20.27;60.62;101370.63;5086503;28;20402;-55
2022/06/18 03:56:30;;;;;;;12.77;5.70;;;;;;;20.29;60.38;101376.63;5094947;28;20401;-55
2022/06/18 03:58:57;;;;;;;14.07;5.57;;;;;;;20.18;60.68;101372.66;5055900;28;20048;-55
2022/06/18 04:01:29;;;;;;;17.00;5.68;;;;;;;20.24;60.32;101361.06;5091147;28;20072;-56
2022/06/18 04:03:58;;;;;;;11.75;5.60;;;;;;;20.28;60.17;101365.03;5073434;28;20512;-55
2022/06/18 04:06:32;;;;;;;12.57;5.32;;;;;;;20.33;59.73;101367.09;5074779;28;20088;-55
2022/06/18 04:09:06;;;;;;;12.48;5.78;;;;;;;20.29;60.07;101363.97;5074957;28;20052;-56
2022/06/18 04:11:33;;;;;;;13.95;5.60;;;;;;;20.28;60.39;101365.03;5076037;28;20025;-55
2022/06/18 04:14:00;;;;;;;14.75;5.80;;;;;;;20.33;60.48;101364.41;5094705;28;20109;-56
2022/06/18 04:16:36;;;;;;;11.18;5.03;;;;;;;20.32;60.13;101362.75;5093819;28;20428;-56
2022/06/18 04:19:10;;;;;;;13.55;6.03;;;;;;;20.35;60.38;101364.22;5094783;28;20497;-55
2022/06/18 04:21:37;;;;;;;13.68;5.70;;;;;;;20.37;59.95;101359.44;5089751;28;20036;-55
2022/06/18 04:24:04;;;;;;;15.27;5.50;;;;;;;20.33;60.51;101362.53;5076955;28;20036;-55
2022/06/18 04:26:32;;;;;;;11.52;5.32;;;;;;;20.39;60.57;101363.59;5094587;28;20078;-55
2022/06/18 04:28:59;;;;;;;11.15;5.45;;;;;;;20.37;60.77;101365.66;5093482;28;20091;-55
2022/06/18 04:31:26;;;;;;;12.35;5.35;;;;;;;20.36;60.89;101365.88;5091725;28;20072;-55
2022/06/18 04:33:54;;;;;;;15.27;5.40;;;;;;;20.35;60.98;101366.91;5093827;28;20044;-55
2022/06/18 04:36:34;;;;;;;14.25;5.68;;;;;;;20.40;60.24;101365.25;5094212;28;20042;-55
2022/06/18 04:39:24;;;;;;;14.57;5.25;;;;;;;20.39;61.51;101366.31;5074545;28;20135;-56
2022/06/18 04:41:59;;;;;;;11.65;5.55;;;;;;;20.41;60.83;101363.38;5083710;28;20055;-56
2022/06/18 04:44:27;;;;;;;12.13;5.55;;;;;;;20.44;60.67;101358.41;5093418;28;20558;-55
2022/06/18 04:47:04;;;;;;;11.40;5.45;;;;;;;20.45;60.60;101360.09;5094289;28;20048;-55
2022/06/18 04:49:32;;;;;;;13.85;5.15;;;;;;;20.43;60.87;101351.38;5093908;28;20047;-55
2022/06/18 04:51:59;;;;;;;13.05;5.80;;;;;;;20.42;61.01;101346.19;5082312;28;20094;-56
2022/06/18 04:54:36;;;;;;;15.25;5.38;;;;;;;20.42;60.99;101341.63;5073419;28;20482;-55
2022/06/18 04:57:03;;;;;;;14.80;5.55;;;;;;;20.44;60.63;101349.50;5072459;28;20032;-57
2022/06/18 04:59:31;;;;;;;16.35;5.43;;;;;;;20.46;61.00;101345.56;5073880;28;20134;-55
2022/06/18 05:02:05;;;;;;;15.77;5.50;;;;;;;20.50;60.80;101349.53;5073465;28;20052;-55
2022/06/18 05:04:53;;;;;;;11.18;5.03;;;;;;;20.56;60.82;101344.34;5072632;28;20147;-55
2022/06/18 05:07:40;;;;;;;19.73;5.40;;;;;;;20.55;61.15;101348.91;5088388;28;20040;-55
2022/06/18 05:10:27;;;;;;;15.57;5.22;;;;;;;20.61;61.18;101348.13;5093595;28;20379;-55
2022/06/18 05:13:02;;;;;;;14.50;5.20;;;;;;;20.65;60.97;101351.25;5073554;28;20417;-57
2022/06/18 05:15:41;;;;;;;20.98;5.63;;;;;;;20.60;60.52;101349.13;5072977;28;20106;-56
2022/06/18 05:18:12;;;;;;;11.57;5.20;;;;;;;20.63;61.28;101351.44;5073524;28;20058;-57
2022/06/18 05:20:40;;;;;;;13.48;5.22;;;;;;;20.63;60.92;101347.91;5073458;28;20045;-55
2022/06/18 05:23:11;;;;;;;12.10;5.10;;;;;;;20.69;61.13;101349.78;5090356;28;20504;-55
2022/06/18 05:25:38;;;;;;;16.77;5.55;;;;;;;20.75;60.02;101348.94;5093538;28;20134;-55
2022/06/18 05:28:05;;;;;;;11.90;4.65;;;;;;;20.92;59.98;101338.59;5073999;28;20048;-54
2022/06/18 05:30:34;;;;;;;11.48;5.35;;;;;;;20.93;60.07;101348.31;5072915;28;20136;-55
2022/06/18 05:33:03;;;;;;;15.18;5.22;;;;;;;20.93;60.13;101342.94;5072430;28;20508;-55
2022/06/18 05:35:35;;;;;;;15.63;5.07;;;;;;;21.01;60.70;101345.44;5053380;28;20076;-55
2022/06/18 05:38:03;;;;;;;13.52;5.38;;;;;;;21.01;59.98;101340.03;5053440;28;20053;-55
2022/06/18 05:40:29;;;;;;;10.77;5.03;;;;;;;21.06;59.28;101342.09;5052933;28;20053;-55
2022/06/18 05:42:56;;;;;;;13.82;5.45;;;;;;;21.09;59.94;101339.81;5053010;28;20041;-55
2022/06/18 05:45:23;;;;;;;17.02;5.25;;;;;;;21.13;60.05;101342.91;5070708;28;20072;-55
2022/06/18 05:47:50;;;;;;;12.38;5.10;;;;;;;21.15;59.41;101340.00;5088828;28;20045;-55
2022/06/18 05:50:19;;;;;;;13.65;4.97;;;;;;;21.20;59.74;101332.94;5088097;28;20710;-55
2022/06/18 05:52:47;;;;;;;14.90;5.13;;;;;;;21.20;59.82;101335.66;5084459;28;20128;-55
2022/06/18 05:55:35;;;;;;;13.95;5.18;;;;;;;21.19;58.84;101334.00;5091482;28;20071;-56
2022/06/18 05:58:11;;;;;;;16.17;5.00;;;;;;;21.35;58.59;101332.69;5056892;28;20048;-56
2022/06/18 06:00:44;;;;;;;14.63;4.97;;;;;;;21.43;59.10;101334.38;5091194;28;20485;-56
2022/06/18 06:03:11;;;;;;;13.00;4.68;;;;;;;21.46;58.54;101336.66;5070671;28;20444;-55
2022/06/18 06:05:37;;;;;;;14.02;4.95;;;;;;;21.51;59.04;101333.34;5084091;28;20204;-55
2022/06/18 06:08:05;;;;;;;19.88;4.88;;;;;;;21.53;58.52;101331.25;5089172;28;20127;-55
2022/06/18 06:13:25;;;;;;;11.70;5.10;;;;;;;21.63;59.67;101340.56;5083057;28;20052;-55
2022/06/18 06:15:53;;;;;;;11.75;5.00;;;;;;;21.65;59.01;101340.34;5090381;28;20075;-55
2022/06/18 06:18:24;;;;;;;15.18;4.85;;;;;;;21.70;59.59;101335.13;5067766;28;20036;-55
2022/06/18 06:20:53;;;;;;;11.98;5.00;;;;;;;21.75;58.88;101335.31;5069290;28;20048;-55
2022/06/18 06:23:20;;;;;;;19.40;5.50;;;;;;;21.83;59.59;101335.09;5093283;28;20039;-56
2022/06/18 06:25:49;;;;;;;17.52;5.22;;;;;;;21.84;60.83;101339.41;5093347;28;20044;-55
2022/06/18 06:28:19;;;;;;;16.58;5.57;;;;;;;21.81;58.72;101339.03;5095995;28;20562;-56
2022/06/18 06:30:48;;;;;;;17.15;5.45;;;;;;;21.89;58.41;101346.06;5094091;28;20373;-56
2022/06/18 06:33:14;;;;;;;14.98;5.28;;;;;;;21.96;59.04;101338.78;5096738;28;20485;-55
2022/06/18 06:35:43;;;;;;;18.63;5.18;;;;;;;22.02;59.72;101338.72;5095529;28;20098;-56
2022/06/18 06:38:11;;;;;;;10.93;5.00;;;;;;;22.05;58.97;101340.19;5096496;28;20451;-56
2022/06/18 06:40:40;;;;;;;12.57;5.35;;;;;;;22.10;59.33;101342.22;5093037;28;20052;-56
2022/06/18 06:43:07;;;;;;;17.17;5.70;;;;;;;22.19;57.81;101344.47;5096502;28;20051;-56
2022/06/18 06:45:35;;;;;;;16.10;4.95;;;;;;;22.19;58.36;101338.22;5076237;28;20428;-57
2022/06/18 06:48:04;;;;;;;13.82;5.35;;;;;;;22.24;59.35;101333.00;5076337;28;20044;-56
2022/06/18 06:50:31;;;;;;;16.45;5.43;;;;;;;22.30;59.38;101336.72;5090291;28;20040;-56
2022/06/18 06:52:58;;;;;;;13.02;5.00;;;;;;;22.34;58.71;101333.38;5075766;28;20379;-55
2022/06/18 06:58:18;;;;;;;13.20;4.82;;;;;;;22.50;57.62;101325.78;5075730;28;20060;-56
2022/06/18 07:00:47;;;;;;;20.55;5.45;;;;;;;22.60;56.90;101331.53;5093789;28;20109;-55
2022/06/18 07:03:16;;;;;;;11.80;5.05;;;;;;;22.62;57.62;101335.66;5076562;28;20422;-57
2022/06/18 07:05:44;;;;;;;18.52;4.85;;;;;;;22.73;57.16;101336.00;5094526;28;20105;-56
2022/06/18 07:08:12;;;;;;;21.02;5.82;;;;;;;22.89;55.78;101330.06;5088813;28;20131;-55
2022/06/18 07:10:39;;;;;;;16.17;5.07;;;;;;;23.07;54.87;101326.59;5075826;28;20041;-56
2022/06/18 07:13:06;;;;;;;11.68;4.80;;;;;;;23.18;55.05;101333.16;5090899;28;20043;-55
2022/06/18 07:15:34;;;;;;;21.25;5.03;;;;;;;23.31;54.09;101324.88;5095864;28;20059;-54
2022/06/18 07:18:03;;;;;;;16.08;5.05;;;;;;;23.37;53.72;101332.09;5095727;28;20109;-56
2022/06/18 07:20:31;;;;;;;14.38;5.00;;;;;;;23.43;53.97;101335.81;5095724;28;20044;-56
2022/06/18 07:22:58;;;;;;;16.75;4.57;;;;;;;23.49;54.41;101326.75;5094136;28;20044;-56
2022/06/18 07:25:25;;;;;;;17.00;4.90;;;;;;;23.57;51.88;101328.34;5095613;28;20051;-56
2022/06/18 07:27:53;;;;;;;17.38;4.82;;;;;;;23.68;52.16;101335.69;5093811;28;20040;-56
2022/06/18 07:30:20;;;;;;;20.50;4.63;;;;;;;23.72;52.18;101326.09;5095511;28;20397;-55
2022/06/18 07:32:48;;;;;;;11.20;4.28;;;;;;;23.89;49.70;101322.78;5095446;28;20436;-55
2022/06/18 07:35:21;;;;;;;18.00;4.45;;;;;;;24.13;48.92;101323.69;5074513;28;20055;-54
2022/06/18 07:37:48;;;;;;;13.82;4.65;;;;;;;24.10;49.34;101326.84;5074955;28;20071;-55
2022/06/18 07:40:16;;;;;;;13.55;4.85;;;;;;;24.15;50.36;101332.41;5074682;28;20056;-55
2022/06/18 07:42:45;;;;;;;14.23;4.78;;;;;;;24.21;49.13;101334.19;5074253;28;20135;-55
2022/06/18 07:45:16;;;;;;;17.90;4.50;;;;;;;24.26;48.55;101336.22;5073615;28;20049;-55
2022/06/18 07:47:45;;;;;;;20.85;5.05;;;;;;;24.31;49.39;101333.66;5093998;28;20520;-55
2022/06/18 07:50:15;;;;;;;17.90;4.70;;;;;;;24.30;49.89;101324.69;5093654;28;20046;-55
2022/06/18 07:52:44;;;;;;;18.55;5.10;;;;;;;24.36;49.85;101327.53;5094973;28;20047;-54
2022/06/18 07:55:15;;;;;;;17.20;4.95;;;;;;;24.45;49.18;101326.97;5093201;28;20048;-57
2022/06/18 07:57:43;;;;;;;19.55;5.20;;;;;;;24.58;49.19;101317.84;5093561;28;20052;-56
2022/06/18 08:00:11;;;;;;;23.77;5.82;;;;;;;24.68;49.18;101315.34;5094883;28;20078;-55
2022/06/18 08:02:50;;;;;;;15.15;4.30;;;;;;;24.68;48.45;101309.94;5131439;27;20381;-54
2022/06/18 08:05:22;;;;;;;24.60;5.15;;;;;;;24.70;49.49;101299.69;5130735;28;20032;-56
2022/06/18 08:07:49;;;;;;;21.48;4.88;;;;;;;25.00;48.71;101297.94;5131468;28;20051;-56
2022/06/18 08:10:23;;;;;;;24.40;4.90;;;;;;;25.07;49.27;101293.19;5129962;28;20070;-58
2022/06/18 08:12:50;;;;;;;18.77;5.18;;;;;;;25.05;48.74;101293.44;5131142;28;20374;-54
2022/06/18 08:15:18;;;;;;;18.98;4.80;;;;;;;25.02;48.50;101283.03;5121123;28;20071;-56
2022/06/18 08:17:44;;;;;;;19.50;5.20;;;;;;;25.11;48.88;101288.94;5131497;28;20104;-55
2022/06/18 08:20:15;;;;;;;21.20;5.22;;;;;;;25.24;48.18;101285.19;5131111;28;20078;-56
2022/06/18 08:22:44;;;;;;;13.18;4.60;;;;;;;25.46;48.01;101269.88;5118474;28;20077;-56
2022/06/18 08:25:13;;;;;;;18.20;4.78;;;;;;;25.55;47.27;101275.75;5110705;28;20503;-55
2022/06/18 08:27:41;;;;;;;14.88;4.82;;;;;;;25.61;48.37;101265.81;5110733;28;20052;-55
2022/06/18 08:30:09;;;;;;;22.35;4.88;;;;;;;25.72;46.33;101264.13;5109783;28;20485;-56
2022/06/18 08:32:36;;;;;;;16.23;5.15;;;;;;;25.79;45.98;101262.91;5092353;28;20489;-55
2022/06/18 08:35:03;;;;;;;26.65;4.82;;;;;;;25.83;45.80;101268.69;5121681;28;20101;-56
2022/06/18 08:37:30;;;;;;;22.23;5.82;;;;;;;25.92;44.69;101266.41;5124746;27;20043;-56
2022/06/18 08:39:59;;;;;;;22.00;5.60;;;;;;;26.04;44.04;101270.75;5129922;28;20040;-55
2022/06/18 08:42:34;;;;;;;17.17;5.00;;;;;;;26.18;43.91;101267.72;5115941;27;20130;-55
2022/06/18 08:45:40;;;;;;;24.73;5.18;;;;;;;26.19;43.94;101261.22;5112315;27;20047;-56
2022/06/18 08:48:42;;;;;;;26.23;5.25;;;;;;;26.43;44.85;101261.88;5121511;28;20070;-55
2022/06/18 08:51:50;;;;;;;21.13;4.85;;;;;;;26.41;43.40;101258.56;5128555;28;20039;-56
2022/06/18 08:54:49;;;;;;;23.27;5.22;;;;;;;26.49;43.52;101260.91;5112851;27;20036;-56
2022/06/18 08:57:44;;;;;;;23.83;8.02;;;;;;;26.70;44.66;101262.03;5110859;27;20044;-56
2022/06/18 09:02:58;;;;;;;25.75;5.88;;;;;;;26.98;41.69;101254.84;5056206;28;20412;-55
2022/06/18 09:08:35;;;;;;;22.67;5.15;;;;;;;27.14;41.10;101253.13;5106715;27;20697;-55
2022/06/18 09:11:36;;;;;;;31.23;5.43;;;;;;;27.25;41.17;101246.75;5102388;28;20032;-54
2022/06/18 09:14:11;;;;;;;21.95;5.45;;;;;;;27.47;40.70;101251.38;5090637;28;20032;-58
2022/06/18 09:16:48;;;;;;;21.33;5.53;;;;;;;27.58;40.26;101251.25;5088033;28;20159;-53
2022/06/18 09:19:18;;;;;;;18.35;5.22;;;;;;;27.70;40.58;101247.53;5094906;28;20428;-55
2022/06/18 09:21:52;;;;;;;28.63;6.13;;;;;;;27.85;39.91;101247.72;5091966;28;20064;-58
2022/06/18 09:24:25;;;;;;;22.67;4.60;;;;;;;27.77;40.91;101242.72;5092282;28;20048;-55
2022/06/18 09:26:59;;;;;;;23.40;6.18;;;;;;;27.61;41.64;101239.00;5094444;28;20044;-54
2022/06/18 09:29:50;;;;;;;22.95;7.25;;;;;;;27.64;40.94;101238.50;5088671;28;20036;-59
2022/06/18 09:32:26;;;;;;;21.00;5.40;;;;;;;27.69;40.02;101238.56;5085893;28;20044;-54
2022/06/18 09:35:00;;;;;;;18.58;4.65;;;;;;;27.91;40.08;101246.72;5089768;28;20069;-52
2022/06/18 09:37:38;;;;;;;42.47;8.02;;;;;;;28.11;39.55;101240.63;5108377;28;20056;-57
2022/06/18 09:40:13;;;;;;;21.00;5.03;;;;;;;28.28;38.99;101236.94;5098177;28;20131;-55
2022/06/18 09:42:48;;;;;;;29.30;9.88;;;;;;;28.51;38.89;101236.56;5081186;28;20040;-58
2022/06/18 09:45:24;;;;;;;25.50;5.95;;;;;;;28.62;37.70;101233.94;5072146;28;20036;-56
2022/06/18 09:47:52;;;;;;;20.63;5.40;;;;;;;28.76;37.94;101237.00;5087564;28;20109;-57
2022/06/18 09:50:27;;;;;;;15.95;4.65;;;;;;;28.90;36.58;101244.44;5105577;28;20494;-57
2022/06/18 09:53:05;;;;;;;23.55;4.90;;;;;;;28.92;35.12;101233.28;5082958;28;20040;-55
2022/06/18 09:55:40;;;;;;;19.40;4.72;;;;;;;28.99;36.01;101231.13;5073313;28;20048;-57
2022/06/18 09:58:15;;;;;;;24.63;5.07;;;;;;;29.41;34.74;101232.13;5076668;28;20040;-56
2022/06/18 10:00:44;;;;;;;20.10;4.80;;;;;;;29.38;34.80;101228.03;5086565;28;20040;-57
2022/06/18 10:06:52;;;;;;;26.75;5.25;;;;;;;29.53;35.05;101232.72;5069106;28;20131;-57
2022/06/18 10:09:05;;;;;;;46.30;14.68;;;;;;;29.56;37.10;101226.72;5079956;28;20040;-57
2022/06/18 10:11:31;;;;;;;22.55;4.93;;;;;;;29.68;35.52;101221.00;5082520;28;20486;-58
2022/06/18 10:14:07;;;;;;;28.13;5.18;;;;;;;29.71;35.29;101219.63;5087746;28;20040;-60
2022/06/18 10:19:58;;;;;;;24.58;5.55;;;;;;;29.99;35.30;101208.19;5088002;27;1344890;-60
2022/06/18 10:22:48;;;;;;;37.85;4.88;;;;;;;29.95;33.98;101218.06;5125393;28;20043;-57
2022/06/18 10:25:45;;;;;;;33.17;5.90;;;;;;;29.91;35.24;101214.22;5131268;27;20062;-56
2022/06/18 10:28:25;;;;;;;58.83;31.00;;;;;;;29.97;37.73;101207.66;5130682;27;20036;-56
2022/06/18 10:34:24;;;;;;;25.25;5.55;;;;;;;30.12;37.40;101204.09;5105386;27;20407;-52
2022/06/18 10:37:12;;;;;;;22.80;4.90;;;;;;;30.36;33.50;101207.13;5087859;28;20090;-63
2022/06/18 10:40:02;;;;;;;22.58;5.75;;;;;;;30.49;34.22;101202.16;5089266;28;20487;-55
2022/06/18 10:45:39;;;;;;;20.50;5.22;;;;;;;30.81;32.18;101191.66;5104378;27;20372;-58
2022/06/18 10:48:11;;;;;;;35.92;5.80;;;;;;;30.78;33.21;101196.88;5095801;28;20040;-55
2022/06/18 10:50:45;;;;;;;43.40;5.32;;;;;;;30.75;33.41;101195.53;5084972;28;20044;-54
2022/06/18 10:53:16;;;;;;;21.27;4.90;;;;;;;30.91;31.86;101193.59;5089874;28;20044;-56
2022/06/18 10:55:43;;;;;;;67.15;31.35;;;;;;;30.89;34.59;101189.44;5044451;28;20070;-56
2022/06/18 10:58:14;;;;;;;27.30;5.57;;;;;;;30.88;33.11;101188.63;5108007;28;20049;-54
2022/06/18 11:00:54;;;;;;;34.75;5.63;;;;;;;30.85;35.71;101200.16;5063683;28;20079;-56
2022/06/18 11:03:27;;;;;;;19.02;5.43;;;;;;;30.88;33.82;101194.13;5093858;28;20501;-55
2022/06/18 11:05:56;;;;;;;27.30;5.38;;;;;;;31.13;33.27;101189.66;5081108;28;20548;-57
2022/06/18 11:08:29;;;;;;;28.35;5.28;;;;;;;31.05;33.35;101184.75;5079566;28;20033;-58
2022/06/18 11:11:04;;;;;;;43.28;13.52;;;;;;;31.14;32.61;101185.81;5083984;28;20290;-56
2022/06/18 11:13:35;;;;;;;25.10;4.78;;;;;;;31.10;32.36;101182.00;5070534;28;20032;-57
2022/06/18 11:16:22;;;;;;;31.80;5.22;;;;;;;31.00;33.10;101180.16;5063026;28;20045;-58
2022/06/18 11:21:35;;;;;;;19.35;4.90;;;;;;;31.15;31.81;101177.31;5109001;27;20403;-55
2022/06/18 11:24:20;;;;;;;26.98;5.40;;;;;;;31.15;32.44;101169.09;5108039;28;20044;-58
2022/06/18 11:26:55;;;;;;;23.73;5.05;;;;;;;31.17;32.94;101175.09;5110045;28;20044;-57
2022/06/18 11:29:35;;;;;;;19.38;5.10;;;;;;;31.26;34.05;101174.53;5107151;28;20043;-55
2022/06/18 11:32:11;;;;;;;30.60;6.20;;;;;;;31.36;31.97;101164.31;5107969;28;20036;-57
2022/06/18 11:34:43;;;;;;;37.78;5.65;;;;;;;31.31;35.13;101169.84;5109163;28;20050;-59
2022/06/18 11:37:13;;;;;;;;;;;;;;;31.36;33.53;101161.59;5110157;28;20493;-62
2022/06/18 11:39:40;;;;;;;28.02;6.90;;;;;;;31.35;33.01;101157.19;5107522;28;19920;-58
2022/06/18 11:42:35;;;;;;;30.05;6.85;;;;;;;31.46;32.06;101157.94;5107018;28;20044;-58
2022/06/18 11:47:49;;;;;;;29.85;6.78;;;;;;;31.54;32.63;101151.91;5043359;28;20408;-61
2022/06/18 11:50:38;;;;;;;34.53;6.55;;;;;;;31.55;34.08;101145.31;5045589;28;20055;-58
2022/06/18 11:53:16;;;;;;;35.10;6.10;;;;;;;31.67;32.70;101149.59;5051449;28;20059;-56
2022/06/18 11:55:50;;;;;;;26.42;6.32;;;;;;;31.77;32.10;101144.03;5047963;28;20056;-56
2022/06/18 11:58:27;;;;;;;24.95;5.53;;;;;;;31.85;31.95;101128.88;5043305;28;20037;-59
2022/06/18 12:01:26;;;;;;;22.42;5.50;;;;;;;31.84;31.61;101130.00;5048420;28;20403;-64
2022/06/18 12:03:56;;;;;;;23.75;5.50;;;;;;;31.93;31.16;101128.28;5052747;28;20050;-57
2022/06/18 12:06:51;;;;;;;29.25;6.80;;;;;;;31.90;32.19;101118.69;5045432;28;20128;-61
2022/06/18 12:09:24;;;;;;;21.05;5.97;;;;;;;32.00;32.21;101115.03;5046310;28;20049;-60
2022/06/18 12:12:31;;;;;;;25.88;5.60;;;;;;;32.00;30.73;101114.19;5047002;28;20045;-62
2022/06/18 12:15:23;;;;;;;28.20;5.43;;;;;;;32.19;30.76;101109.66;5039638;28;22001;-60
2022/06/18 12:17:59;;;;;;;25.25;5.55;;;;;;;32.14;29.74;101105.03;5039373;28;20128;-60
2022/06/18 12:20:55;;;;;;;21.08;5.20;;;;;;;32.42;30.01;101104.44;5044725;28;20049;-60